createdAt,value
2022-11-27T00:01:34.133Z,12.00
2022-11-27T00:04:02.504Z,10.97
2022-11-27T00:06:31.773Z,11.43
2022-11-27T00:09:03.279Z,12.87
2022-11-27T00:11:32.504Z,14.17
2022-11-27T00:14:01.511Z,10.70
2022-11-27T00:16:30.308Z,8.93
2022-11-27T00:18:58.849Z,10.70
2022-11-27T00:21:29.081Z,13.73
2022-11-27T00:23:59.326Z,14.53
2022-11-27T00:26:35.999Z,11.40
2022-11-27T00:29:06.919Z,11.53
2022-11-27T00:31:37.776Z,9.53
2022-11-27T00:34:08.701Z,12.90
2022-11-27T00:36:37.849Z,10.57
2022-11-27T00:39:07.264Z,13.40
2022-11-27T00:41:37.961Z,11.17
2022-11-27T00:44:06.743Z,12.83
2022-11-27T00:46:36.041Z,12.23
2022-11-27T00:49:06.557Z,13.97
2022-11-27T00:51:35.511Z,13.50
2022-11-27T00:54:03.864Z,12.40
2022-11-27T00:56:34.034Z,10.00
2022-11-27T00:59:04.007Z,11.63
2022-11-27T01:01:33.911Z,13.77
2022-11-27T01:04:03.889Z,9.53
2022-11-27T01:06:32.453Z,12.13
2022-11-27T01:09:01.507Z,8.73
2022-11-27T01:11:31.435Z,9.83
2022-11-27T01:14:01.295Z,7.33
2022-11-27T01:16:33.044Z,7.03
2022-11-27T01:19:03.547Z,11.40
2022-11-27T01:21:34.172Z,8.47
2022-11-27T01:24:03.818Z,9.07
2022-11-27T01:26:32.601Z,13.60
2022-11-27T01:29:01.121Z,7.87
2022-11-27T01:31:34.118Z,8.20
2022-11-27T01:34:03.809Z,7.43
2022-11-27T01:36:32.779Z,8.57
2022-11-27T01:39:01.552Z,10.03
2022-11-27T01:41:31.995Z,9.17
2022-11-27T01:44:01.958Z,8.10
2022-11-27T01:46:36.173Z,12.13
2022-11-27T01:49:25.135Z,10.97
2022-11-27T01:51:57.630Z,10.73
2022-11-27T01:54:28.337Z,8.00
2022-11-27T01:57:00.646Z,7.97
2022-11-27T01:59:28.989Z,8.83
2022-11-27T02:01:58.575Z,9.20
2022-11-27T02:04:26.831Z,7.90
2022-11-27T02:06:57.523Z,9.57
2022-11-27T02:09:25.903Z,14.43
2022-11-27T02:12:00.830Z,8.03
2022-11-27T02:14:36.592Z,6.57
2022-11-27T02:17:11.315Z,7.80
2022-11-27T02:19:55.022Z,7.60
2022-11-27T02:22:40.219Z,7.50
2022-11-27T02:25:22.813Z,7.20
2022-11-27T02:28:11.631Z,7.43
2022-11-27T02:30:47.780Z,10.17
2022-11-27T02:33:21.165Z,4.40
2022-11-27T02:35:53.536Z,7.23
2022-11-27T02:38:26.911Z,7.20
2022-11-27T02:40:58.184Z,7.90
2022-11-27T02:43:30.506Z,6.73
2022-11-27T02:46:01.445Z,7.70
2022-11-27T02:48:35.711Z,9.07
2022-11-27T02:51:05.037Z,7.23
2022-11-27T02:53:38.030Z,11.60
2022-11-27T02:56:11.561Z,5.20
2022-11-27T02:58:41.460Z,5.83
2022-11-27T03:01:13.252Z,9.30
2022-11-27T03:03:45.048Z,8.33
2022-11-27T03:06:17.626Z,6.80
2022-11-27T03:08:53.307Z,8.17
2022-11-27T03:11:21.810Z,6.33
2022-11-27T03:13:53.815Z,6.53
2022-11-27T03:16:34.577Z,5.93
2022-11-27T03:19:12.877Z,5.57
2022-11-27T03:21:43.218Z,8.50
2022-11-27T03:24:12.150Z,5.17
2022-11-27T03:26:41.702Z,6.40
2022-11-27T03:29:14.825Z,6.10
2022-11-27T03:31:44.789Z,8.27
2022-11-27T03:34:13.302Z,4.37
2022-11-27T03:36:41.539Z,6.77
2022-11-27T03:39:10.447Z,7.13
2022-11-27T03:41:45.362Z,6.20
2022-11-27T03:44:23.669Z,6.17
2022-11-27T03:47:01.690Z,5.33
2022-11-27T03:49:41.774Z,5.87
2022-11-27T03:52:17.169Z,6.20
2022-11-27T03:54:55.873Z,6.23
2022-11-27T03:57:31.241Z,3.67
2022-11-27T04:00:02.852Z,361.87
2022-11-27T04:02:43.437Z,7.63
2022-11-27T04:05:12.218Z,5.00
2022-11-27T04:07:40.481Z,4.10
2022-11-27T04:10:10.267Z,24.97
2022-11-27T04:12:38.550Z,6.20
2022-11-27T04:15:08.165Z,9.70
2022-11-27T04:17:36.316Z,5.47
2022-11-27T04:20:07.672Z,6.03
2022-11-27T04:22:35.854Z,6.53
2022-11-27T04:25:03.981Z,6.30
2022-11-27T04:27:32.090Z,4.30
2022-11-27T04:30:00.375Z,5.13
2022-11-27T04:32:28.488Z,5.63
2022-11-27T04:34:56.634Z,5.83
2022-11-27T04:37:26.149Z,5.13
2022-11-27T04:39:54.265Z,4.87
2022-11-27T04:42:22.416Z,6.03
2022-11-27T04:44:50.566Z,4.83
2022-11-27T04:47:18.709Z,7.73
2022-11-27T04:49:47.083Z,8.20
2022-11-27T04:52:15.357Z,26.27
2022-11-27T04:54:45.231Z,9.43
2022-11-27T04:57:13.406Z,5.47
2022-11-27T04:59:41.477Z,3.63
2022-11-27T05:02:09.719Z,8.80
2022-11-27T05:04:37.969Z,6.50
2022-11-27T05:07:06.167Z,6.90
2022-11-27T05:09:34.315Z,7.20
2022-11-27T05:12:03.965Z,6.57
2022-11-27T05:14:32.091Z,5.53
2022-11-27T05:17:00.636Z,6.07
2022-11-27T05:19:30.442Z,4.30
2022-11-27T05:21:58.962Z,7.63
2022-11-27T05:24:28.659Z,9.03
2022-11-27T05:26:57.716Z,5.80
2022-11-27T05:29:27.551Z,6.67
2022-11-27T05:31:55.719Z,6.70
2022-11-27T05:34:23.986Z,5.33
2022-11-27T05:36:52.292Z,7.13
2022-11-27T05:39:20.366Z,7.07
2022-11-27T05:41:48.735Z,8.43
2022-11-27T05:44:16.963Z,6.80
2022-11-27T05:46:46.550Z,6.60
2022-11-27T05:49:16.153Z,5.27
2022-11-27T05:51:50.708Z,6.40
2022-11-27T05:54:19.756Z,5.50
2022-11-27T05:56:48.409Z,641.27
2022-11-27T05:59:16.609Z,8.03
2022-11-27T06:01:46.257Z,5.83
2022-11-27T06:04:14.521Z,5.30
2022-11-27T06:06:42.685Z,6.10
2022-11-27T06:09:13.079Z,8.13
2022-11-27T06:11:42.161Z,6.67
2022-11-27T06:14:11.268Z,6.70
2022-11-27T06:16:39.645Z,7.03
2022-11-27T06:19:10.022Z,8.43
2022-11-27T06:21:38.314Z,4.77
2022-11-27T06:24:06.883Z,6.63
2022-11-27T06:26:35.701Z,5.40
2022-11-27T06:29:03.952Z,9.60
2022-11-27T06:31:33.890Z,6.30
2022-11-27T06:34:02.751Z,6.70
2022-11-27T06:36:34.909Z,5.53
2022-11-27T06:39:04.118Z,6.60
2022-11-27T06:41:32.682Z,4.33
2022-11-27T06:44:02.508Z,5.27
2022-11-27T06:46:31.192Z,6.70
2022-11-27T06:49:00.064Z,6.93
2022-11-27T06:51:30.261Z,5.33
2022-11-27T06:54:02.890Z,6.73
2022-11-27T06:56:32.716Z,7.90
2022-11-27T06:59:02.598Z,6.60
2022-11-27T07:01:32.252Z,6.20
2022-11-27T07:04:01.209Z,7.70
2022-11-27T07:06:29.703Z,7.20
2022-11-27T07:08:59.497Z,8.20
2022-11-27T07:11:29.772Z,7.67
2022-11-27T07:14:00.303Z,6.30
2022-11-27T07:16:29.997Z,7.80
2022-11-27T07:19:01.484Z,5.87
2022-11-27T07:21:30.131Z,6.70
2022-11-27T07:24:00.051Z,8.17
2022-11-27T07:26:31.026Z,7.43
2022-11-27T07:28:59.386Z,5.20
2022-11-27T07:31:30.352Z,8.17
2022-11-27T07:33:59.266Z,8.00
2022-11-27T07:36:29.673Z,9.93
2022-11-27T07:38:59.213Z,6.53
2022-11-27T07:41:33.425Z,9.33
2022-11-27T07:44:01.970Z,7.00
2022-11-27T07:46:30.929Z,8.33
2022-11-27T07:49:00.590Z,10.03
2022-11-27T07:51:29.440Z,10.80
2022-11-27T07:54:00.688Z,6.83
2022-11-27T07:56:28.853Z,6.20
2022-11-27T07:58:58.056Z,11.10
2022-11-27T08:01:26.266Z,8.17
2022-11-27T08:03:54.434Z,8.37
2022-11-27T08:06:24.349Z,7.50
2022-11-27T08:08:53.512Z,6.47
2022-11-27T08:11:24.758Z,8.57
2022-11-27T08:13:57.524Z,8.53
2022-11-27T08:16:25.738Z,6.07
2022-11-27T08:18:54.141Z,8.23
2022-11-27T08:21:22.837Z,7.57
2022-11-27T08:23:51.180Z,7.13
2022-11-27T08:26:19.703Z,8.27
2022-11-27T08:28:49.388Z,7.10
2022-11-27T08:31:18.192Z,8.83
2022-11-27T08:33:46.524Z,6.60
2022-11-27T08:36:18.128Z,7.97
2022-11-27T08:38:47.059Z,8.20
2022-11-27T08:41:15.484Z,7.07
2022-11-27T08:43:43.669Z,5.53
2022-11-27T08:46:13.251Z,8.60
2022-11-27T08:48:41.965Z,5.90
2022-11-27T08:51:12.318Z,5.30
2022-11-27T08:53:41.333Z,8.13
2022-11-27T08:56:12.627Z,7.97
2022-11-27T08:58:41.090Z,9.20
2022-11-27T09:01:12.259Z,8.80
2022-11-27T09:03:41.895Z,9.20
2022-11-27T09:06:11.454Z,7.27
2022-11-27T09:08:40.250Z,10.03
2022-11-27T09:11:09.211Z,7.37
2022-11-27T09:13:39.238Z,8.67
2022-11-27T09:16:09.507Z,8.40
2022-11-27T09:18:37.769Z,7.80
2022-11-27T09:21:09.980Z,7.10
2022-11-27T09:23:39.118Z,8.73
2022-11-27T09:26:10.216Z,5.93
2022-11-27T09:28:39.469Z,6.87
2022-11-27T09:31:09.987Z,10.40
2022-11-27T09:33:39.731Z,9.70
2022-11-27T09:36:11.717Z,9.60
2022-11-27T09:38:39.980Z,9.33
2022-11-27T09:41:36.601Z,6.93
2022-11-27T09:44:11.686Z,8.50
2022-11-27T09:46:42.635Z,10.87
2022-11-27T09:49:17.009Z,7.23
2022-11-27T09:51:52.169Z,7.43
2022-11-27T09:54:25.858Z,9.53
2022-11-27T09:56:56.566Z,7.20
2022-11-27T09:59:30.610Z,9.07
2022-11-27T10:01:58.841Z,10.87
2022-11-27T10:04:30.365Z,10.53
2022-11-27T10:07:22.078Z,8.97
2022-11-27T10:10:05.668Z,8.87
2022-11-27T10:12:41.768Z,7.87
2022-11-27T10:15:17.148Z,7.63
2022-11-27T10:17:52.199Z,9.67
2022-11-27T10:20:29.560Z,8.50
2022-11-27T10:23:03.368Z,14.90
2022-11-27T10:25:39.932Z,9.73
2022-11-27T10:28:21.512Z,8.00
2022-11-27T10:30:55.228Z,7.97
2022-11-27T10:33:28.036Z,12.20
2022-11-27T10:35:56.428Z,11.47
2022-11-27T10:38:29.064Z,12.30
2022-11-27T10:41:07.860Z,10.83
2022-11-27T10:43:37.843Z,8.10
2022-11-27T10:46:13.723Z,10.23
2022-11-27T10:48:42.270Z,581.27
2022-11-27T10:51:16.274Z,48.03
2022-11-27T10:53:49.072Z,10.10
2022-11-27T10:56:36.676Z,9.80
2022-11-27T10:59:07.639Z,7.53
2022-11-27T11:01:44.516Z,7.53
2022-11-27T11:04:36.231Z,6.63
2022-11-27T11:07:03.230Z,7.67
2022-11-27T11:09:36.469Z,13.70
2022-11-27T11:12:09.141Z,6.63
2022-11-27T11:14:37.684Z,8.90
2022-11-27T11:17:16.856Z,9.07
2022-11-27T11:19:45.964Z,8.67
2022-11-27T11:22:16.891Z,8.10
2022-11-27T11:24:48.823Z,9.50
2022-11-27T11:27:21.317Z,12.27
2022-11-27T11:29:52.544Z,8.70
2022-11-27T11:32:25.008Z,11.40
2022-11-27T11:35:01.133Z,10.33
2022-11-27T11:37:32.066Z,9.33
2022-11-27T11:40:05.273Z,8.50
2022-11-27T11:42:36.449Z,9.50
2022-11-27T11:45:07.601Z,8.97
2022-11-27T11:47:36.908Z,8.70
2022-11-27T11:50:06.498Z,10.17
2022-11-27T11:52:50.008Z,7.60
2022-11-27T11:55:27.388Z,8.60
2022-11-27T11:58:22.229Z,10.10
2022-11-27T12:01:25.441Z,11.43
2022-11-27T12:04:03.172Z,8.97
2022-11-27T12:06:41.610Z,9.77
2022-11-27T12:09:26.370Z,10.57
2022-11-27T12:12:02.252Z,8.93
2022-11-27T12:14:43.128Z,6.77
2022-11-27T12:17:25.488Z,7.93
2022-11-27T12:20:15.917Z,9.90
2022-11-27T12:23:08.971Z,8.27
2022-11-27T12:25:39.642Z,8.43
2022-11-27T12:28:28.521Z,8.53
2022-11-27T12:31:07.326Z,8.20
2022-11-27T12:33:53.824Z,9.20
2022-11-27T12:36:29.862Z,9.87
2022-11-27T12:39:11.561Z,11.10
2022-11-27T12:41:51.592Z,8.53
2022-11-27T12:44:28.486Z,8.63
2022-11-27T12:47:01.708Z,10.00
2022-11-27T12:49:34.507Z,10.10
2022-11-27T12:52:11.103Z,9.07
2022-11-27T12:54:47.865Z,10.03
2022-11-27T12:57:20.191Z,10.33
2022-11-27T12:59:54.994Z,7.77
2022-11-27T13:02:30.221Z,8.20
2022-11-27T13:05:02.652Z,8.53
2022-11-27T13:07:40.276Z,9.43
2022-11-27T13:10:20.438Z,11.47
2022-11-27T13:12:55.052Z,8.93
2022-11-27T13:15:30.626Z,7.47
2022-11-27T13:18:06.510Z,8.90
2022-11-27T13:20:39.454Z,8.43
2022-11-27T13:23:07.623Z,7.63
2022-11-27T13:25:41.871Z,7.23
2022-11-27T13:28:17.706Z,9.73
2022-11-27T13:30:49.091Z,8.07
2022-11-27T13:33:33.925Z,8.83
2022-11-27T13:36:04.470Z,7.53
2022-11-27T13:38:34.306Z,6.60
2022-11-27T13:41:05.601Z,11.93
2022-11-27T13:43:43.469Z,6.73
2022-11-27T13:46:19.482Z,8.90
2022-11-27T13:48:51.388Z,126.97
2022-11-27T13:51:29.099Z,6.50
2022-11-27T13:54:09.384Z,7.83
2022-11-27T13:56:37.962Z,8.80
2022-11-27T13:59:20.753Z,10.40
2022-11-27T14:01:59.115Z,12.37
2022-11-27T14:04:28.124Z,9.07
2022-11-27T14:07:03.204Z,7.03
2022-11-27T14:09:38.052Z,10.27
2022-11-27T14:12:20.310Z,7.77
2022-11-27T14:15:01.505Z,9.53
2022-11-27T14:17:38.774Z,7.87
2022-11-27T14:20:21.339Z,12.83
2022-11-27T14:23:11.294Z,7.63
2022-11-27T14:25:39.710Z,6.97
2022-11-27T14:28:16.104Z,7.93
2022-11-27T14:30:49.470Z,10.00
2022-11-27T14:33:22.146Z,8.27
2022-11-27T14:35:51.936Z,7.80
2022-11-27T14:38:20.493Z,8.43
2022-11-27T14:40:49.826Z,8.23
2022-11-27T14:43:23.828Z,9.37
2022-11-27T14:45:54.230Z,8.67
2022-11-27T14:48:25.688Z,8.73
2022-11-27T14:50:55.950Z,11.60
2022-11-27T14:53:27.380Z,10.07
2022-11-27T14:55:58.720Z,12.77
2022-11-27T14:58:29.247Z,9.20
2022-11-27T15:01:01.261Z,10.37
2022-11-27T15:03:31.097Z,13.20
2022-11-27T15:06:00.786Z,5.73
2022-11-27T15:08:30.934Z,6.67
2022-11-27T15:11:00.727Z,8.13
2022-11-27T15:13:32.308Z,8.00
2022-11-27T15:16:04.898Z,8.43
2022-11-27T15:18:38.403Z,6.47
2022-11-27T15:21:12.364Z,7.37
2022-11-27T15:23:46.045Z,6.23
2022-11-27T15:26:21.154Z,8.37
2022-11-27T15:28:54.795Z,7.80
2022-11-27T15:31:26.543Z,7.67
2022-11-27T15:34:02.676Z,8.67
2022-11-27T15:36:39.757Z,7.47
2022-11-27T15:39:36.209Z,7.30
2022-11-27T15:42:07.046Z,5.90
2022-11-27T15:44:35.430Z,9.60
2022-11-27T15:47:05.621Z,7.53
2022-11-27T15:49:35.189Z,7.47
2022-11-27T15:52:03.389Z,7.73
2022-11-27T15:54:32.912Z,6.03
2022-11-27T15:57:01.088Z,6.57
2022-11-27T15:59:29.454Z,6.70
2022-11-27T16:01:58.074Z,7.43
2022-11-27T16:04:26.331Z,8.10
2022-11-27T16:06:55.974Z,8.10
2022-11-27T16:09:24.339Z,17.53
2022-11-27T16:11:52.610Z,6.77
2022-11-27T16:14:20.819Z,9.70
2022-11-27T16:16:49.048Z,6.60
2022-11-27T16:19:17.700Z,8.00
2022-11-27T16:21:45.957Z,6.23
2022-11-27T16:24:16.195Z,7.17
2022-11-27T16:26:47.441Z,7.70
2022-11-27T16:29:15.704Z,5.80
2022-11-27T16:31:44.010Z,8.47
2022-11-27T16:34:13.022Z,7.20
2022-11-27T16:36:42.243Z,6.10
2022-11-27T16:39:11.893Z,8.33
2022-11-27T16:41:42.127Z,6.50
2022-11-27T16:44:12.583Z,8.07
2022-11-27T16:46:41.413Z,5.97
2022-11-27T16:49:09.910Z,5.43
2022-11-27T16:51:40.542Z,7.37
2022-11-27T16:54:13.361Z,6.43
2022-11-27T16:56:45.882Z,5.60
2022-11-27T16:59:16.880Z,6.47
2022-11-27T17:01:45.271Z,7.77
2022-11-27T17:04:18.206Z,9.37
2022-11-27T17:06:47.758Z,8.60
2022-11-27T17:09:16.595Z,8.77
2022-11-27T17:11:49.277Z,12.37
2022-11-27T17:14:20.132Z,10.70
2022-11-27T17:16:48.558Z,9.30
2022-11-27T17:19:17.521Z,10.13
2022-11-27T17:21:47.086Z,64.93
2022-11-27T17:24:17.133Z,30.30
2022-11-27T17:26:49.487Z,7.00
2022-11-27T17:29:20.928Z,10.63
2022-11-27T17:31:51.553Z,373.63
2022-11-27T17:34:20.692Z,1999.90
2022-11-27T17:36:53.525Z,8.80
2022-11-27T17:39:22.403Z,1371.50
2022-11-27T17:41:52.081Z,9.33
2022-11-27T17:44:20.460Z,8.47
2022-11-27T17:46:50.616Z,8.73
2022-11-27T17:49:22.105Z,8.40
2022-11-27T17:51:51.399Z,8.83
2022-11-27T17:54:20.553Z,8.13
2022-11-27T17:56:51.576Z,9.33
2022-11-27T17:59:22.378Z,7.80
2022-11-27T18:01:53.062Z,10.00
2022-11-27T18:04:22.282Z,6.97
2022-11-27T18:06:51.520Z,8.37
2022-11-27T18:09:21.928Z,9.10
2022-11-27T18:11:50.243Z,9.87
2022-11-27T18:14:19.340Z,8.70
2022-11-27T18:16:49.038Z,7.53
2022-11-27T18:19:20.560Z,7.87
2022-11-27T18:21:50.276Z,9.10
2022-11-27T18:24:24.075Z,8.27
2022-11-27T18:27:11.793Z,12.03
2022-11-27T18:29:42.832Z,9.10
2022-11-27T18:32:14.017Z,9.93
2022-11-27T18:34:46.027Z,9.17
2022-11-27T18:37:14.681Z,9.77
2022-11-27T18:39:49.882Z,10.30
2022-11-27T18:42:18.057Z,8.73
2022-11-27T18:44:51.976Z,11.53
2022-11-27T18:47:21.960Z,10.03
2022-11-27T18:49:50.268Z,369.73
2022-11-27T18:52:22.037Z,1411.43
2022-11-27T18:54:53.151Z,1999.90
2022-11-27T18:57:21.659Z,8.43
2022-11-27T18:59:52.283Z,1999.90
2022-11-27T19:02:22.152Z,9.33
2022-11-27T19:04:50.632Z,1345.77
2022-11-27T19:07:19.112Z,66.93
2022-11-27T19:09:47.510Z,6.00
2022-11-27T19:12:16.043Z,5.80
2022-11-27T19:14:44.790Z,60.67
2022-11-27T19:17:15.657Z,1999.90
2022-11-27T19:19:54.540Z,1999.90
2022-11-27T19:22:34.200Z,1999.90
2022-11-27T19:25:02.821Z,1999.90
2022-11-27T19:27:32.788Z,1999.90
2022-11-27T19:30:01.041Z,1999.90
2022-11-27T19:32:29.740Z,1999.90
2022-11-27T19:35:03.068Z,1999.90
2022-11-27T19:37:36.986Z,1499.30
2022-11-27T19:40:08.370Z,9.67
2022-11-27T19:42:38.029Z,8.37
2022-11-27T19:45:08.057Z,9.37
2022-11-27T19:47:36.587Z,7.43
2022-11-27T19:50:07.901Z,7.73
2022-11-27T19:52:36.196Z,9.03
2022-11-27T19:55:07.316Z,9.43
2022-11-27T19:57:36.272Z,8.80
2022-11-27T20:00:07.508Z,8.87
2022-11-27T20:02:42.486Z,9.70
2022-11-27T20:05:14.398Z,7.90
2022-11-27T20:07:45.850Z,10.63
2022-11-27T20:10:14.350Z,9.70
2022-11-27T20:12:42.909Z,8.50
2022-11-27T20:15:14.413Z,7.93
2022-11-27T20:17:43.708Z,6.97
2022-11-27T20:20:17.647Z,9.27
2022-11-27T20:22:46.274Z,7.80
2022-11-27T20:25:19.836Z,9.30
2022-11-27T20:27:49.685Z,9.73
2022-11-27T20:30:18.172Z,10.77
2022-11-27T20:32:47.335Z,8.27
2022-11-27T20:35:17.864Z,10.53
2022-11-27T20:37:46.063Z,8.97
2022-11-27T20:40:14.689Z,11.83
2022-11-27T20:42:43.047Z,7.13
2022-11-27T20:45:16.216Z,8.63
2022-11-27T20:47:47.446Z,10.50
2022-11-27T20:50:17.068Z,11.37
2022-11-27T20:52:45.606Z,7.20
2022-11-27T20:55:14.675Z,10.23
2022-11-27T20:57:42.984Z,13.10
2022-11-27T21:00:12.346Z,9.63
2022-11-27T21:02:41.757Z,7.97
2022-11-27T21:05:10.838Z,7.70
2022-11-27T21:07:42.476Z,10.43
2022-11-27T21:10:14.308Z,10.20
2022-11-27T21:12:43.395Z,10.77
2022-11-27T21:15:13.119Z,11.17
2022-11-27T21:17:41.637Z,11.43
2022-11-27T21:20:14.392Z,10.90
2022-11-27T21:22:44.168Z,10.13
2022-11-27T21:25:12.487Z,9.57
2022-11-27T21:27:40.791Z,11.13
2022-11-27T21:30:09.780Z,11.07
2022-11-27T21:32:38.443Z,13.10
2022-11-27T21:35:08.943Z,12.17
2022-11-27T21:37:39.722Z,9.03
2022-11-27T21:40:11.695Z,11.93
2022-11-27T21:42:44.353Z,12.87
2022-11-27T21:45:15.917Z,8.73
2022-11-27T21:47:44.313Z,10.53
2022-11-27T21:50:15.551Z,9.13
2022-11-27T21:52:46.322Z,11.37
2022-11-27T21:55:16.017Z,8.13
2022-11-27T21:57:44.271Z,9.07
2022-11-27T22:00:13.880Z,8.77
2022-11-27T22:02:45.285Z,8.83
2022-11-27T22:05:13.582Z,9.40
2022-11-27T22:07:41.789Z,6.33
2022-11-27T22:10:11.305Z,7.57
2022-11-27T22:12:42.681Z,11.27
2022-11-27T22:15:12.306Z,7.37
2022-11-27T22:17:40.734Z,8.93
2022-11-27T22:20:09.790Z,10.27
2022-11-27T22:22:38.698Z,9.27
2022-11-27T22:25:07.370Z,9.10
2022-11-27T22:27:37.960Z,12.33
2022-11-27T22:30:09.563Z,11.40
2022-11-27T22:32:38.346Z,10.33
2022-11-27T22:35:07.452Z,8.43
2022-11-27T22:37:35.620Z,7.37
2022-11-27T22:40:04.690Z,6.63
2022-11-27T22:42:33.684Z,8.37
2022-11-27T22:45:01.944Z,7.33
2022-11-27T22:47:32.434Z,7.33
2022-11-27T22:50:00.598Z,8.07
2022-11-27T22:52:30.010Z,8.00
2022-11-27T22:54:58.529Z,6.47
2022-11-27T22:57:26.845Z,7.87
2022-11-27T22:59:55.187Z,7.40
2022-11-27T23:02:23.505Z,7.60
2022-11-27T23:04:53.111Z,11.17
2022-11-27T23:07:25.118Z,6.67
2022-11-27T23:09:54.181Z,7.43
2022-11-27T23:12:22.485Z,7.00
2022-11-27T23:14:50.663Z,6.97
2022-11-27T23:17:18.838Z,7.23
2022-11-27T23:19:46.980Z,7.50
2022-11-27T23:22:16.521Z,6.70
2022-11-27T23:24:44.871Z,7.53
2022-11-27T23:27:13.029Z,8.43
2022-11-27T23:29:41.161Z,9.10
2022-11-27T23:32:09.341Z,8.23
2022-11-27T23:34:37.663Z,8.43
2022-11-27T23:37:06.549Z,5.30
2022-11-27T23:39:36.120Z,7.30
2022-11-27T23:42:05.261Z,5.77
2022-11-27T23:44:33.749Z,7.57
2022-11-27T23:47:02.012Z,6.20
2022-11-27T23:49:30.706Z,5.20
2022-11-27T23:51:59.351Z,10.07
2022-11-27T23:54:27.693Z,6.83
2022-11-27T23:56:57.364Z,6.47
2022-11-27T23:59:25.567Z,7.17
